Time;durP1;ratioP1;P1;durP2;ratioP2;P2;SDS_P1;SDS_P2;PMS_P1;PMS_P2;Temp;Humidity;BMP_temperature;BMP_pressure;BME280_temperature;BME280_humidity;BME280_pressure;Samples;Min_cycle;Max_cycle;Signal;HPM_P1;HPM_P2
2023/04/05 00:01:29;;;;;;;4.75;3.80;;;;;;;7.23;87.36;99163.97;5022335;28;20045;-67
2023/04/05 00:03:56;;;;;;;6.30;3.58;;;;;;;7.25;87.43;99164.66;5024521;28;20279;-67
2023/04/05 00:06:28;;;;;;;5.57;3.97;;;;;;;7.23;88.45;99158.72;5022493;28;20101;-67
2023/04/05 00:08:54;;;;;;;4.75;3.60;;;;;;;7.23;88.19;99163.97;5022868;28;20310;-66
2023/04/05 00:11:28;;;;;;;5.90;4.32;;;;;;;7.23;86.74;99167.44;5020337;28;20406;-66
2023/04/05 00:13:55;;;;;;;4.80;3.63;;;;;;;7.28;86.46;99156.44;5029658;28;20037;-69
2023/04/05 00:16:20;;;;;;;5.95;3.78;;;;;;;7.28;85.39;99162.56;5024295;28;20041;-66
2023/04/05 00:18:50;;;;;;;5.63;3.92;;;;;;;7.21;85.62;99152.78;5024103;28;20052;-69
2023/04/05 00:21:20;;;;;;;5.38;4.18;;;;;;;7.18;85.83;99158.34;5021481;28;20040;-70
2023/04/05 00:23:47;;;;;;;4.63;3.97;;;;;;;7.16;86.38;99160.31;5020861;28;20044;-66
2023/04/05 00:26:13;;;;;;;6.10;4.13;;;;;;;7.20;87.23;99164.28;5024223;28;20362;-66
2023/04/05 00:28:38;;;;;;;5.90;4.20;;;;;;;7.27;87.80;99157.41;5024632;28;20042;-66
2023/04/05 00:31:05;;;;;;;6.80;4.20;;;;;;;7.27;87.44;99152.97;5022341;28;20033;-66
2023/04/05 00:33:31;;;;;;;5.30;4.30;;;;;;;7.30;87.44;99157.97;5020543;28;20033;-66
2023/04/05 00:35:56;;;;;;;6.35;4.32;;;;;;;7.31;87.37;99169.34;5026312;28;20041;-67
2023/04/05 00:38:22;;;;;;;7.10;4.00;;;;;;;7.22;87.00;99167.59;5021414;28;20045;-67
2023/04/05 00:40:47;;;;;;;5.57;4.50;;;;;;;7.13;87.51;99164.09;5021072;28;20034;-66
2023/04/05 00:43:13;;;;;;;4.70;3.67;;;;;;;7.09;86.64;99161.91;5019896;28;20029;-69
2023/04/05 00:45:38;;;;;;;6.53;4.10;;;;;;;7.23;85.64;99177.16;5020116;28;20033;-69
2023/04/05 00:48:05;;;;;;;6.45;4.30;;;;;;;7.18;85.82;99176.78;5020126;28;20033;-69
2023/04/05 00:50:31;;;;;;;5.47;3.83;;;;;;;7.10;85.90;99182.81;5020386;28;20101;-69
2023/04/05 00:52:57;;;;;;;6.97;4.32;;;;;;;7.15;86.65;99177.09;5024533;28;20082;-68
2023/04/05 00:55:24;;;;;;;6.18;4.53;;;;;;;7.06;85.63;99176.22;5024247;28;20033;-69
2023/04/05 00:57:50;;;;;;;5.40;3.97;;;;;;;7.10;85.67;99187.25;5023293;28;20093;-70
2023/04/05 01:00:16;;;;;;;5.68;4.07;;;;;;;7.03;86.11;99185.22;5020307;28;20048;-69
2023/04/05 01:02:50;;;;;;;5.95;4.28;;;;;;;7.06;87.17;99178.84;5023106;28;20346;-67
2023/04/05 01:05:37;;;;;;;6.25;3.92;;;;;;;7.21;86.89;99181.75;5023258;28;20204;-69
2023/04/05 01:08:27;;;;;;;6.07;4.22;;;;;;;7.23;86.47;99185.03;5021074;28;20037;-67
2023/04/05 01:11:01;;;;;;;5.25;4.40;;;;;;;7.23;87.06;99185.88;5022289;28;20139;-67
2023/04/05 01:13:29;;;;;;;6.07;4.43;;;;;;;7.10;86.53;99179.34;5023067;28;20100;-69
2023/04/05 01:15:54;;;;;;;7.38;4.68;;;;;;;7.11;86.71;99183.66;5022879;28;20049;-66
2023/04/05 01:18:20;;;;;;;4.88;4.05;;;;;;;7.03;86.28;99185.22;5021666;28;20119;-69
2023/04/05 01:21:22;;;;;;;6.47;4.47;;;;;;;7.04;85.45;99181.63;5020388;28;20275;-69
2023/04/05 01:24:02;;;;;;;6.80;4.40;;;;;;;6.95;86.00;99186.97;5020713;28;20041;-66
2023/04/05 01:26:46;;;;;;;5.43;4.18;;;;;;;6.89;85.89;99184.97;5023499;28;20069;-66
2023/04/05 01:29:33;;;;;;;4.55;3.92;;;;;;;6.91;86.29;99185.63;5021175;28;20105;-67
2023/04/05 01:32:22;;;;;;;6.50;4.65;;;;;;;6.99;85.80;99196.22;5018094;28;20046;-70
2023/04/05 01:35:28;;;;;;;6.13;4.43;;;;;;;6.96;85.91;99197.34;5020265;28;20038;-66
2023/04/05 01:38:01;;;;;;;6.93;4.25;;;;;;;6.84;86.72;99195.94;5016570;28;20045;-69
2023/04/05 01:40:28;;;;;;;6.53;4.75;;;;;;;6.95;86.31;99210.66;5018617;28;20044;-69
2023/04/05 01:42:54;;;;;;;6.70;4.45;;;;;;;6.98;86.85;99203.28;5017092;28;20374;-66
2023/04/05 01:45:20;;;;;;;6.15;4.50;;;;;;;6.97;86.58;99199.00;5022167;28;20056;-67
2023/04/05 01:47:45;;;;;;;5.47;4.25;;;;;;;6.99;86.23;99209.38;5023213;28;20332;-69
2023/04/05 01:50:11;;;;;;;6.78;4.30;;;;;;;6.97;85.61;99209.53;5019931;28;20040;-69
2023/04/05 01:52:36;;;;;;;6.25;4.35;;;;;;;6.99;86.15;99212.03;5023272;28;20332;-69
2023/04/05 01:55:02;;;;;;;6.75;4.28;;;;;;;6.95;85.98;99218.56;5022575;28;20042;-66
2023/04/05 01:57:28;;;;;;;8.43;4.10;;;;;;;6.95;86.47;99213.31;5022068;28;20400;-67
2023/04/05 01:59:53;;;;;;;6.90;4.57;;;;;;;6.96;86.70;99218.41;5021314;28;20339;-66
2023/04/05 02:02:18;;;;;;;7.30;4.88;;;;;;;7.03;86.70;99208.09;5025774;28;20041;-68
2023/04/05 02:04:44;;;;;;;7.88;4.75;;;;;;;7.04;85.79;99218.47;5023841;28;20087;-64
2023/04/05 02:07:09;;;;;;;5.60;4.28;;;;;;;6.92;85.66;99221.50;5024081;28;20034;-69
2023/04/05 02:09:35;;;;;;;6.25;4.20;;;;;;;6.95;86.14;99229.09;5022421;28;20037;-69
2023/04/05 02:12:00;;;;;;;7.07;4.55;;;;;;;6.88;86.17;99228.03;5026405;28;20324;-69
2023/04/05 02:14:26;;;;;;;7.00;4.75;;;;;;;6.97;85.07;99227.13;5023038;28;20033;-69
2023/04/05 02:16:55;;;;;;;6.85;4.45;;;;;;;7.05;86.07;99230.66;5024564;28;20364;-69
2023/04/05 02:19:22;;;;;;;7.60;4.90;;;;;;;7.14;84.95;99226.28;5024210;28;20065;-69
2023/04/05 02:21:55;;;;;;;6.70;4.85;;;;;;;7.21;84.78;99247.56;5021783;28;20049;-66
2023/04/05 02:24:20;;;;;;;6.25;4.55;;;;;;;7.22;85.16;99236.88;5023925;28;20030;-66
2023/04/05 02:26:46;;;;;;;6.85;5.00;;;;;;;7.25;86.05;99238.38;5023295;28;20310;-69
2023/04/05 02:29:12;;;;;;;6.25;4.57;;;;;;;7.15;86.03;99246.38;5027462;28;20096;-67
2023/04/05 02:31:37;;;;;;;7.00;4.25;;;;;;;7.10;84.74;99237.28;5026656;28;20340;-69
2023/04/05 02:34:04;;;;;;;6.43;4.38;;;;;;;7.12;85.54;99251.94;5023274;28;20048;-67
2023/04/05 02:36:30;;;;;;;6.10;4.32;;;;;;;7.19;84.96;99252.16;5023923;28;20038;-66
2023/04/05 02:38:55;;;;;;;6.20;3.95;;;;;;;7.14;84.37;99251.78;5024323;28;20050;-69
2023/04/05 02:41:22;;;;;;;7.32;4.65;;;;;;;7.09;84.10;99259.31;5021892;28;20044;-67
2023/04/05 02:43:49;;;;;;;5.88;4.25;;;;;;;7.06;84.58;99255.19;5022388;28;20227;-66
2023/04/05 02:46:14;;;;;;;7.22;4.82;;;;;;;7.02;84.27;99251.19;5022151;28;20309;-69
2023/04/05 02:48:40;;;;;;;8.05;4.88;;;;;;;6.89;84.68;99250.75;5021700;28;20051;-64
2023/04/05 02:51:05;;;;;;;9.30;5.20;;;;;;;6.92;84.85;99248.66;5026699;28;20742;-66
2023/04/05 02:53:31;;;;;;;6.20;4.28;;;;;;;7.03;85.10;99251.03;5025012;28;20041;-66
2023/04/05 02:55:56;;;;;;;5.25;4.40;;;;;;;7.10;84.66;99253.91;5024746;28;20045;-67
2023/04/05 02:58:23;;;;;;;6.72;4.60;;;;;;;7.03;84.09;99258.94;5022738;28;20033;-67
2023/04/05 03:00:53;;;;;;;7.93;5.28;;;;;;;7.04;83.86;99259.78;5025236;28;20109;-69
2023/04/05 03:03:22;;;;;;;8.10;5.10;;;;;;;7.00;83.87;99261.88;5025398;28;20057;-66
2023/04/05 03:05:48;;;;;;;6.80;4.75;;;;;;;6.96;84.65;99262.34;5022687;28;20054;-66
2023/04/05 03:08:17;;;;;;;7.22;4.57;;;;;;;6.85;85.14;99260.75;5021995;28;20207;-69
2023/04/05 03:10:46;;;;;;;8.02;4.88;;;;;;;6.93;85.41;99270.53;5022480;28;20033;-66
2023/04/05 03:13:13;;;;;;;7.78;4.60;;;;;;;6.91;84.98;99273.31;5021074;28;20033;-69
2023/04/05 03:15:38;;;;;;;7.03;4.57;;;;;;;6.87;84.64;99264.06;5022000;28;20037;-69
2023/04/05 03:18:04;;;;;;;6.78;4.55;;;;;;;7.00;85.19;99272.41;5023645;28;20052;-66
2023/04/05 03:20:29;;;;;;;10.35;5.78;;;;;;;6.97;84.58;99270.06;5025194;28;20048;-69
2023/04/05 03:22:55;;;;;;;5.57;4.55;;;;;;;6.88;84.65;99273.63;5022611;28;20090;-70
2023/04/05 03:25:20;;;;;;;8.73;5.00;;;;;;;6.86;84.59;99272.94;5021210;28;20021;-67
2023/04/05 03:27:46;;;;;;;10.13;5.93;;;;;;;6.90;84.96;99276.91;5030650;28;20040;-69
2023/04/05 03:30:11;;;;;;;6.45;4.68;;;;;;;6.89;84.04;99271.81;5024508;28;20037;-69
2023/04/05 03:32:37;;;;;;;7.28;4.82;;;;;;;6.81;85.01;99269.09;5021284;28;20053;-69
2023/04/05 03:35:03;;;;;;;6.65;5.18;;;;;;;6.84;85.23;99266.16;5024749;28;20080;-70
2023/04/05 03:37:28;;;;;;;7.20;4.90;;;;;;;6.88;85.58;99270.16;5021507;28;20069;-70
2023/04/05 03:39:54;;;;;;;7.80;4.78;;;;;;;6.89;85.64;99275.25;5025451;28;20407;-69
2023/04/05 03:42:19;;;;;;;7.70;5.30;;;;;;;6.92;85.67;99277.59;5027442;28;20033;-69
2023/04/05 03:44:46;;;;;;;7.30;4.93;;;;;;;6.95;85.81;99271.22;5022456;28;20034;-69
2023/04/05 03:47:12;;;;;;;6.82;4.93;;;;;;;6.83;85.20;99272.41;5022467;28;20034;-66
2023/04/05 03:49:37;;;;;;;11.05;6.13;;;;;;;6.80;85.58;99288.50;5022058;28;20032;-66
2023/04/05 03:52:03;;;;;;;6.53;5.20;;;;;;;6.81;85.39;99279.63;5024285;28;20303;-67
2023/04/05 03:54:28;;;;;;;8.45;5.43;;;;;;;6.75;84.92;99278.41;5021924;28;20045;-67
2023/04/05 03:56:55;;;;;;;8.45;5.15;;;;;;;6.75;85.05;99285.47;5022129;28;20045;-67
2023/04/05 03:59:20;;;;;;;8.38;5.72;;;;;;;6.64;85.67;99289.97;5020825;28;20079;-67
2023/04/05 04:01:46;;;;;;;10.73;5.93;;;;;;;6.60;85.16;99283.34;5023472;28;20046;-69
2023/04/05 04:04:12;;;;;;;7.22;5.45;;;;;;;6.69;85.96;99293.00;5022543;28;20118;-70
2023/04/05 04:06:38;;;;;;;10.02;6.03;;;;;;;6.66;85.28;99295.09;5020258;28;20046;-66
2023/04/05 04:09:04;;;;;;;9.80;5.32;;;;;;;6.63;85.55;99298.03;5023544;28;20096;-66
2023/04/05 04:11:30;;;;;;;9.50;5.38;;;;;;;6.64;85.60;99302.31;5021160;28;20033;-69
2023/04/05 04:13:56;;;;;;;9.63;5.05;;;;;;;6.65;86.14;99307.41;5021426;28;20235;-69
2023/04/05 04:16:21;;;;;;;5.95;4.30;;;;;;;6.67;86.08;99309.91;5020899;28;20059;-67
2023/04/05 04:18:47;;;;;;;9.60;5.68;;;;;;;6.82;86.15;99308.41;5025574;28;20046;-66
2023/04/05 04:21:13;;;;;;;7.72;5.18;;;;;;;6.77;85.09;99315.94;5023454;28;20095;-69
2023/04/05 04:23:39;;;;;;;6.72;4.80;;;;;;;6.86;84.78;99317.66;5024972;28;20051;-68
2023/04/05 04:26:05;;;;;;;7.05;4.68;;;;;;;6.77;85.17;99317.75;5022907;28;20042;-67
2023/04/05 04:28:33;;;;;;;7.47;4.93;;;;;;;6.82;85.13;99320.75;5020441;28;20335;-69
2023/04/05 04:31:03;;;;;;;7.30;5.03;;;;;;;6.85;84.24;99321.28;5022022;28;20034;-69
2023/04/05 04:33:29;;;;;;;7.82;4.90;;;;;;;6.94;84.84;99322.19;5019335;28;20042;-67
2023/04/05 04:35:55;;;;;;;7.82;4.88;;;;;;;6.85;84.56;99315.19;5023378;28;20327;-70
2023/04/05 04:38:21;;;;;;;6.70;4.75;;;;;;;6.89;85.08;99325.28;5024258;28;20040;-70
2023/04/05 04:40:49;;;;;;;9.32;4.88;;;;;;;6.89;83.67;99327.06;5030527;28;20304;-69
2023/04/05 04:43:17;;;;;;;7.72;5.13;;;;;;;6.87;84.96;99336.94;5030611;28;20182;-70
2023/04/05 04:45:47;;;;;;;7.72;4.88;;;;;;;6.81;84.85;99337.50;5030758;28;20357;-66
2023/04/05 04:48:16;;;;;;;6.97;4.85;;;;;;;6.93;85.01;99337.16;5031006;28;20045;-66
2023/04/05 04:50:45;;;;;;;6.50;4.72;;;;;;;6.91;83.29;99336.47;5031852;28;20034;-69
2023/04/05 04:53:12;;;;;;;7.65;5.38;;;;;;;6.91;84.05;99346.19;5029686;28;20408;-66
2023/04/05 04:55:43;;;;;;;6.45;4.43;;;;;;;6.94;84.46;99345.88;5032180;28;20037;-69
2023/04/05 04:58:10;;;;;;;8.15;5.38;;;;;;;6.91;83.57;99349.63;5030183;28;20433;-66
2023/04/05 05:00:43;;;;;;;6.43;4.50;;;;;;;6.87;84.83;99350.91;5031282;28;20135;-69
2023/04/05 05:03:12;;;;;;;7.80;5.18;;;;;;;7.03;85.12;99356.34;5032924;28;20100;-67
2023/04/05 05:05:48;;;;;;;9.70;5.78;;;;;;;7.12;83.96;99349.34;5031292;28;20041;-68
2023/04/05 05:08:15;;;;;;;7.18;5.65;;;;;;;7.13;83.61;99350.19;5030251;28;20128;-67
2023/04/05 05:10:41;;;;;;;6.93;4.72;;;;;;;7.21;84.45;99347.63;5032389;28;20045;-69
2023/04/05 05:13:07;;;;;;;6.45;4.18;;;;;;;7.26;83.95;99364.63;5031417;28;20343;-67
2023/04/05 05:15:33;;;;;;;7.88;4.70;;;;;;;7.27;82.99;99362.84;5029706;28;20046;-67
2023/04/05 05:17:58;;;;;;;8.38;4.95;;;;;;;7.29;83.74;99361.72;5028649;28;20115;-66
2023/04/05 05:20:27;;;;;;;6.80;4.78;;;;;;;7.34;82.08;99356.00;5031266;28;20041;-67
2023/04/05 05:22:53;;;;;;;8.82;4.40;;;;;;;7.35;82.54;99362.94;5030009;28;20064;-69
2023/04/05 05:25:19;;;;;;;5.93;4.20;;;;;;;7.47;82.38;99356.47;5028507;28;20029;-67
2023/04/05 05:27:49;;;;;;;5.95;4.45;;;;;;;7.53;82.92;99361.13;5031782;28;20072;-67
2023/04/05 05:30:14;;;;;;;7.32;4.57;;;;;;;7.51;83.08;99370.97;5029716;28;20037;-66
2023/04/05 05:32:40;;;;;;;7.57;4.82;;;;;;;7.54;82.73;99364.59;5029558;28;20045;-66
2023/04/05 05:35:07;;;;;;;6.20;3.95;;;;;;;7.36;82.07;99362.78;5030868;28;20267;-69
2023/04/05 05:37:33;;;;;;;7.00;4.47;;;;;;;7.20;82.49;99375.78;5030088;28;20284;-69
2023/04/05 05:39:59;;;;;;;6.45;4.05;;;;;;;7.47;82.74;99369.63;5030903;28;20063;-67
2023/04/05 05:42:26;;;;;;;5.55;3.35;;;;;;;7.51;80.93;99370.97;5029995;28;20538;-69
2023/04/05 05:44:52;;;;;;;6.22;4.25;;;;;;;7.53;81.70;99366.38;5030977;28;20044;-69
2023/04/05 05:47:17;;;;;;;5.43;4.13;;;;;;;7.69;82.08;99368.34;5029813;28;20078;-66
2023/04/05 05:49:43;;;;;;;6.22;4.10;;;;;;;7.71;80.25;99366.38;5031307;28;20037;-66
2023/04/05 05:52:08;;;;;;;7.13;4.57;;;;;;;7.87;80.46;99363.03;5030102;28;20045;-67
2023/04/05 05:54:34;;;;;;;5.65;4.20;;;;;;;7.93;79.96;99368.50;5029081;28;20037;-64
2023/04/05 05:57:01;;;;;;;5.20;3.85;;;;;;;7.97;80.79;99367.22;5030768;28;20122;-67
2023/04/05 05:59:27;;;;;;;5.18;3.50;;;;;;;7.90;79.55;99360.09;5028248;28;20037;-66
2023/04/05 06:01:53;;;;;;;6.35;4.18;;;;;;;7.86;79.89;99356.94;5030876;28;20323;-69
2023/04/05 06:04:19;;;;;;;6.20;3.90;;;;;;;7.75;78.86;99359.81;5028506;28;20026;-69
2023/04/05 06:06:46;;;;;;;6.32;4.00;;;;;;;7.81;81.14;99359.19;5032580;28;20200;-66
2023/04/05 06:09:15;;;;;;;5.55;4.18;;;;;;;7.90;80.82;99357.44;5036186;28;20349;-65
2023/04/05 06:11:41;;;;;;;4.30;3.70;;;;;;;7.86;79.97;99364.84;5035493;28;20046;-68
2023/04/05 06:14:07;;;;;;;4.18;3.00;;;;;;;7.81;78.47;99358.38;5036262;28;20044;-69
2023/04/05 06:16:34;;;;;;;5.13;3.33;;;;;;;7.89;78.71;99366.34;5035683;28;20049;-70
2023/04/05 06:19:00;;;;;;;4.45;4.05;;;;;;;7.87;79.42;99374.41;5035830;28;20057;-69
2023/04/05 06:21:26;;;;;;;4.88;3.05;;;;;;;7.95;79.84;99371.00;5035775;28;20045;-67
2023/04/05 06:23:52;;;;;;;5.72;3.47;;;;;;;8.05;78.99;99376.16;5036191;28;20435;-64
2023/04/05 06:26:25;;;;;;;3.92;3.47;;;;;;;8.22;79.79;99377.91;5036040;28;20119;-67
2023/04/05 06:28:52;;;;;;;5.10;3.65;;;;;;;8.40;79.92;99376.09;5036123;28;20030;-67
2023/04/05 06:31:20;;;;;;;4.85;3.45;;;;;;;8.45;77.68;99375.63;5036347;28;20048;-65
2023/04/05 06:33:45;;;;;;;3.92;3.38;;;;;;;8.41;76.38;99385.69;5036376;28;20037;-69
2023/04/05 06:36:11;;;;;;;3.40;3.10;;;;;;;8.32;76.27;99383.91;5035553;28;20327;-65
2023/04/05 06:38:37;;;;;;;5.13;3.20;;;;;;;8.34;76.54;99389.09;5035837;28;20096;-65
2023/04/05 06:41:03;;;;;;;4.15;3.20;;;;;;;8.43;77.75;99381.06;5036013;28;20097;-66
2023/04/05 06:43:30;;;;;;;4.75;3.38;;;;;;;8.40;76.90;99383.19;5035961;28;20034;-67
2023/04/05 06:45:55;;;;;;;4.05;3.38;;;;;;;8.39;76.52;99381.53;5038654;28;20108;-69
2023/04/05 06:48:21;;;;;;;4.50;3.42;;;;;;;8.40;76.42;99391.13;5040589;28;20029;-66
2023/04/05 06:50:47;;;;;;;3.78;2.97;;;;;;;8.38;76.02;99390.44;5040628;28;20328;-66
2023/04/05 06:53:17;;;;;;;3.88;3.30;;;;;;;8.36;76.29;99401.16;5040554;28;20228;-66
2023/04/05 06:55:49;;;;;;;5.03;3.55;;;;;;;8.42;77.86;99399.69;5040090;28;20205;-65
2023/04/05 06:58:14;;;;;;;3.80;2.90;;;;;;;8.37;78.52;99400.16;5039813;28;20064;-66
2023/04/05 07:00:40;;;;;;;3.92;3.22;;;;;;;8.43;77.22;99404.00;5039451;28;20045;-67
2023/04/05 07:03:05;;;;;;;4.70;3.40;;;;;;;8.40;76.13;99410.41;5037740;28;20048;-69
2023/04/05 07:05:31;;;;;;;5.35;3.70;;;;;;;8.34;76.92;99408.38;5033928;28;20076;-68
2023/04/05 07:07:56;;;;;;;4.20;2.95;;;;;;;8.37;77.45;99410.72;5032994;28;20274;-69
2023/04/05 07:10:22;;;;;;;4.45;3.15;;;;;;;8.39;75.95;99421.94;5034044;28;20037;-68
2023/04/05 07:12:47;;;;;;;6.03;3.40;;;;;;;8.38;77.00;99419.47;5032731;28;20347;-69
2023/04/05 07:15:13;;;;;;;4.13;2.88;;;;;;;8.42;76.48;99420.81;5033744;28;20030;-66
2023/04/05 07:17:39;;;;;;;3.42;2.80;;;;;;;8.37;76.67;99431.81;5031519;28;20073;-69
2023/04/05 07:20:06;;;;;;;3.60;3.22;;;;;;;8.48;77.27;99425.47;5034334;28;20342;-66
2023/04/05 07:22:33;;;;;;;4.57;2.63;;;;;;;8.55;75.77;99432.59;5032937;28;20033;-64
2023/04/05 07:24:58;;;;;;;3.63;2.83;;;;;;;8.52;76.67;99432.91;5033635;28;20355;-64
2023/04/05 07:27:24;;;;;;;4.10;3.15;;;;;;;8.60;77.32;99435.59;5033101;28;20037;-67
2023/04/05 07:29:49;;;;;;;4.45;2.90;;;;;;;8.64;76.52;99429.00;5032742;28;20033;-67
2023/04/05 07:32:15;;;;;;;5.20;2.67;;;;;;;8.72;75.74;99441.41;5033450;28;20038;-64
2023/04/05 07:34:41;;;;;;;3.60;2.90;;;;;;;8.75;75.52;99438.47;5032848;28;20232;-68
2023/04/05 07:37:06;;;;;;;4.82;3.13;;;;;;;8.72;74.47;99443.22;5032686;28;20041;-66
2023/04/05 07:39:32;;;;;;;3.50;3.20;;;;;;;8.75;76.03;99445.56;5032711;28;20048;-66
2023/04/05 07:41:58;;;;;;;5.60;3.65;;;;;;;8.79;75.74;99446.91;5034157;28;20377;-69
2023/04/05 07:44:23;;;;;;;6.25;3.80;;;;;;;8.75;74.63;99446.38;5030451;28;20025;-69
2023/04/05 07:46:49;;;;;;;6.63;4.43;;;;;;;8.76;75.77;99449.84;5033796;28;20037;-66
2023/04/05 07:49:15;;;;;;;5.57;3.50;;;;;;;8.82;75.37;99454.50;5032623;28;20205;-69
2023/04/05 07:51:42;;;;;;;4.50;2.80;;;;;;;8.90;75.97;99447.44;5034554;28;20378;-66
2023/04/05 07:54:08;;;;;;;3.95;3.55;;;;;;;9.06;76.62;99449.31;5033720;28;20030;-66
2023/04/05 07:56:35;;;;;;;4.75;3.92;;;;;;;9.21;76.12;99449.53;5034431;28;20083;-66
2023/04/05 07:59:01;;;;;;;4.00;3.28;;;;;;;9.37;75.08;99459.34;5032062;28;20243;-64
2023/04/05 08:01:26;;;;;;;3.78;3.45;;;;;;;9.27;74.96;99457.66;5033495;28;20757;-67
2023/04/05 08:03:58;;;;;;;6.25;3.97;;;;;;;9.36;74.65;99455.03;5031209;28;20450;-63
2023/04/05 08:06:23;;;;;;;5.90;3.90;;;;;;;9.43;74.10;99464.81;5031986;28;20036;-64
2023/04/05 08:08:49;;;;;;;4.40;3.53;;;;;;;9.41;74.42;99465.97;5032577;28;20231;-66
2023/04/05 08:11:15;;;;;;;5.97;3.85;;;;;;;9.55;75.50;99465.34;5032284;28;20033;-67
2023/04/05 08:13:41;;;;;;;4.88;3.47;;;;;;;9.59;74.61;99461.38;5033621;28;20037;-64
2023/04/05 08:16:08;;;;;;;3.35;3.05;;;;;;;9.58;73.26;99463.19;5030572;28;20049;-63
2023/04/05 08:18:34;;;;;;;3.85;3.00;;;;;;;9.61;73.72;99459.41;5031308;28;20358;-65
2023/04/05 08:20:59;;;;;;;3.25;2.92;;;;;;;9.68;72.15;99467.50;5030853;28;20239;-64
2023/04/05 08:23:26;;;;;;;8.30;5.35;;;;;;;9.71;72.71;99473.31;5031906;28;20046;-64
2023/04/05 08:25:52;;;;;;;3.47;2.35;;;;;;;9.62;71.49;99470.81;5031146;28;20076;-64
2023/04/05 08:28:17;;;;;;;2.90;2.50;;;;;;;9.56;71.84;99473.09;5032097;28;20048;-64
2023/04/05 08:30:44;;;;;;;3.30;2.33;;;;;;;9.57;72.66;99468.66;5030438;28;20037;-66
2023/04/05 08:33:10;;;;;;;3.30;3.00;;;;;;;9.69;72.62;99475.28;5031921;28;20251;-63
2023/04/05 08:35:37;;;;;;;3.08;2.78;;;;;;;9.78;72.81;99471.66;5029997;28;20049;-64
2023/04/05 08:38:03;;;;;;;2.65;2.40;;;;;;;9.89;71.21;99476.63;5033537;28;20372;-66
2023/04/05 08:40:43;;;;;;;4.18;2.90;;;;;;;10.03;71.49;99474.31;5031301;28;20041;-64
2023/04/05 08:43:40;;;;;;;4.05;2.85;;;;;;;10.23;71.70;99478.31;5030622;28;20096;-63
2023/04/05 08:46:08;;;;;;;3.47;2.80;;;;;;;10.30;70.47;99471.38;5032440;28;20316;-66
2023/04/05 08:48:37;;;;;;;4.40;3.55;;;;;;;10.44;71.79;99476.00;5031702;28;20037;-64
2023/04/05 08:51:02;;;;;;;3.25;2.95;;;;;;;10.53;70.73;99485.59;5035269;28;20041;-64
2023/04/05 08:53:28;;;;;;;5.93;3.30;;;;;;;10.39;72.60;99477.47;5031813;28;20247;-64
2023/04/05 08:55:59;;;;;;;3.05;2.60;;;;;;;10.51;70.68;99482.28;5032283;28;20075;-67
2023/04/05 08:58:25;;;;;;;3.95;3.40;;;;;;;10.55;70.64;99480.97;5033020;28;20777;-63
2023/04/05 09:00:51;;;;;;;3.42;2.67;;;;;;;10.57;69.69;99482.59;5031890;28;20052;-66
2023/04/05 09:03:22;;;;;;;4.00;3.08;;;;;;;10.44;70.95;99485.78;5032802;28;20320;-67
2023/04/05 09:05:52;;;;;;;3.58;3.03;;;;;;;10.43;70.66;99490.25;5031649;28;20034;-64
2023/04/05 09:08:20;;;;;;;4.25;2.88;;;;;;;10.47;72.73;99480.16;5033074;28;20041;-66
2023/04/05 09:10:48;;;;;;;4.32;2.88;;;;;;;10.49;70.58;99489.56;5029421;28;20097;-66
2023/04/05 09:13:14;;;;;;;3.95;3.17;;;;;;;10.46;70.34;99486.44;5031004;28;20049;-67
2023/04/05 09:15:40;;;;;;;3.33;2.53;;;;;;;10.46;70.88;99481.13;5032718;28;20350;-64
2023/04/05 09:18:05;;;;;;;3.92;2.60;;;;;;;10.27;70.53;99487.56;5031765;28;20040;-63
2023/04/05 09:20:31;;;;;;;3.40;3.03;;;;;;;10.33;72.52;99481.63;5029626;28;20033;-67
2023/04/05 09:22:57;;;;;;;4.10;2.85;;;;;;;10.31;70.06;99483.59;5030421;28;20045;-64
2023/04/05 09:25:31;;;;;;;4.30;3.17;;;;;;;10.32;69.25;99487.91;5029311;28;20177;-67
2023/04/05 09:28:02;;;;;;;3.45;2.78;;;;;;;10.32;70.31;99485.25;5029585;28;20033;-67
2023/04/05 09:30:28;;;;;;;6.93;5.65;;;;;;;10.28;70.66;99483.09;5029747;28;20041;-67
2023/04/05 09:32:55;;;;;;;5.25;4.20;;;;;;;10.34;71.54;99485.91;5031908;28;20974;-64
2023/04/05 09:35:23;;;;;;;5.45;4.63;;;;;;;10.40;72.52;99490.56;5029938;28;20037;-63
2023/04/05 09:37:52;;;;;;;5.15;4.65;;;;;;;10.43;71.35;99490.25;5035649;28;20033;-64
2023/04/05 09:40:18;;;;;;;4.80;3.97;;;;;;;10.47;70.15;99496.84;5030795;28;20029;-64
2023/04/05 09:42:45;;;;;;;5.93;3.97;;;;;;;10.60;71.77;99492.88;5031317;28;20347;-63
2023/04/05 09:45:11;;;;;;;6.88;5.32;;;;;;;10.69;71.88;99492.69;5030745;28;20093;-66
2023/04/05 09:47:37;;;;;;;9.27;5.50;;;;;;;10.80;70.71;99497.63;5030157;28;20033;-67
2023/04/05 09:50:17;;;;;;;7.38;4.50;;;;;;;10.81;70.50;99495.78;5030741;28;20088;-67
2023/04/05 09:52:43;;;;;;;7.00;3.72;;;;;;;10.80;69.33;99494.16;5030620;28;20339;-64
2023/04/05 09:55:09;;;;;;;8.77;5.28;;;;;;;10.79;70.31;99497.78;5030301;28;20052;-64
2023/04/05 09:57:40;;;;;;;6.38;4.13;;;;;;;10.67;67.95;99496.50;5031837;28;20141;-66
2023/04/05 10:00:18;;;;;;;7.32;3.80;;;;;;;10.70;69.44;99494.34;5029764;28;20057;-63
2023/04/05 10:02:46;;;;;;;13.32;6.57;;;;;;;10.70;68.34;99496.16;5030808;28;20045;-64
2023/04/05 10:05:15;;;;;;;8.40;5.20;;;;;;;10.61;69.18;99500.63;5031045;28;20048;-64
2023/04/05 10:07:44;;;;;;;4.25;3.10;;;;;;;10.55;69.73;99499.50;5031674;28;20307;-64
2023/04/05 10:10:15;;;;;;;3.92;2.20;;;;;;;10.58;69.96;99498.31;5031539;28;20052;-67
2023/04/05 10:12:41;;;;;;;2.45;2.25;;;;;;;10.54;68.42;99502.31;5031774;28;20294;-64
2023/04/05 10:15:10;;;;;;;3.35;2.58;;;;;;;10.57;69.04;99496.69;5030987;28;20072;-64
2023/04/05 10:17:51;;;;;;;6.90;4.18;;;;;;;10.56;68.18;99487.06;5031535;28;20072;-64
2023/04/05 10:20:22;;;;;;;4.10;3.42;;;;;;;10.49;70.39;99501.97;5031280;28;20290;-67
2023/04/05 10:22:51;;;;;;;4.00;3.13;;;;;;;10.47;69.44;99498.69;5033430;28;20100;-64
2023/04/05 10:25:50;;;;;;;2.80;2.60;;;;;;;10.42;69.98;99499.19;5036550;28;20045;-66
2023/04/05 10:28:28;;;;;;;2.85;2.13;;;;;;;10.37;69.01;99504.09;5034515;28;20033;-66
2023/04/05 10:31:13;;;;;;;4.28;2.92;;;;;;;10.39;70.85;99491.53;5036247;28;20076;-64
2023/04/05 10:33:42;;;;;;;4.15;2.85;;;;;;;10.33;70.91;99491.38;5039448;28;20045;-66
2023/04/05 10:36:55;;;;;;;3.22;2.78;;;;;;;10.27;70.53;99506.09;5040294;28;20055;-66
2023/04/05 10:39:57;;;;;;;4.60;2.80;;;;;;;10.31;70.31;99503.94;5038872;28;20130;-67
2023/04/05 10:42:42;;;;;;;4.03;2.55;;;;;;;10.23;69.08;99508.25;5038092;28;20055;-67
2023/04/05 10:45:13;;;;;;;2.20;2.05;;;;;;;10.18;68.51;99499.94;5039216;28;20044;-67
2023/04/05 10:47:46;;;;;;;2.83;2.63;;;;;;;10.10;70.21;99507.88;5040930;28;20295;-66
2023/04/05 10:50:19;;;;;;;2.33;1.75;;;;;;;10.12;69.98;99507.72;5040018;28;20030;-67
2023/04/05 10:52:47;;;;;;;2.55;2.35;;;;;;;10.12;69.36;99502.44;5040562;28;20060;-67
2023/04/05 10:55:12;;;;;;;4.35;2.20;;;;;;;10.20;71.42;99505.09;5040091;28;20033;-66
2023/04/05 10:57:39;;;;;;;2.45;2.25;;;;;;;10.23;70.60;99505.59;5040330;28;20033;-63
2023/04/05 11:00:05;;;;;;;2.10;1.90;;;;;;;10.21;70.40;99512.88;5039989;28;20030;-66
2023/04/05 11:02:31;;;;;;;2.30;1.95;;;;;;;10.26;71.29;99514.19;5040743;28;20043;-67
2023/04/05 11:05:03;;;;;;;3.25;1.90;;;;;;;10.41;69.85;99516.06;5039718;28;20041;-67
2023/04/05 11:07:42;;;;;;;2.42;2.22;;;;;;;10.42;68.46;99515.06;5039541;28;20123;-66
2023/04/05 11:10:16;;;;;;;4.10;2.47;;;;;;;10.34;69.21;99512.38;5038971;28;20036;-64
2023/04/05 11:12:48;;;;;;;2.95;2.60;;;;;;;10.33;68.60;99518.66;5039217;28;20116;-64
2023/04/05 11:15:31;;;;;;;2.53;2.03;;;;;;;10.31;68.61;99520.66;5038807;28;20040;-66
2023/04/05 11:18:09;;;;;;;2.38;1.90;;;;;;;10.39;72.99;99515.34;5039394;28;20029;-67
2023/04/05 11:20:47;;;;;;;2.70;2.50;;;;;;;10.46;75.97;99516.38;5039392;28;20080;-64
2023/04/05 11:23:15;;;;;;;3.25;2.72;;;;;;;10.42;75.06;99515.06;5039460;28;20322;-67
2023/04/05 11:25:46;;;;;;;4.43;3.40;;;;;;;10.44;74.35;99509.59;5031415;28;20379;-66
2023/04/05 11:28:29;;;;;;;2.95;2.47;;;;;;;10.39;73.38;99511.88;5032871;28;20389;-64
2023/04/05 11:30:55;;;;;;;2.92;2.20;;;;;;;10.42;75.57;99514.22;5032919;28;20108;-66
2023/04/05 11:33:37;;;;;;;2.20;1.92;;;;;;;10.41;70.04;99516.06;5038426;28;20030;-66
2023/04/05 11:36:03;;;;;;;4.13;3.20;;;;;;;10.52;70.08;99515.72;5038739;28;20041;-67
2023/04/05 11:38:29;;;;;;;3.55;2.00;;;;;;;10.47;67.95;99525.16;5038742;28;20033;-64
2023/04/05 11:41:16;;;;;;;1.40;1.30;;;;;;;10.58;67.42;99521.31;5038587;28;20080;-64
2023/04/05 11:43:50;;;;;;;4.30;2.33;;;;;;;10.61;69.39;99521.81;5039157;28;20032;-66
2023/04/05 11:46:17;;;;;;;2.40;2.20;;;;;;;10.70;69.69;99517.34;5039062;28;20033;-67